Aviation Digital Data Service (ADDS)

Output produced by TAFs form (0330 UTC 01 August 2015)
found at http://aviationweather.gov/adds/tafs/
 
KEGE 010121Z 0101/0124 23010G18KT P6SM SCT120 BKN200 
     FM010300 10006KT P6SM FEW120 SCT200 
     FM011400 VRB03KT P6SM FEW150 SCT200 
     FM011800 26008KT P6SM SCT100 SCT150 AMD LTD TO CLD VIS AND WIND 0102/0113